createdAt,value
2022-12-20T00:01:35.388Z,41.53
2022-12-20T00:04:05.812Z,40.10
2022-12-20T00:06:37.198Z,39.83
2022-12-20T00:09:07.756Z,39.30
2022-12-20T00:11:38.103Z,39.95
2022-12-20T00:14:05.663Z,40.38
2022-12-20T00:16:33.356Z,38.58
2022-12-20T00:19:02.555Z,38.33
2022-12-20T00:21:31.387Z,37.78
2022-12-20T00:23:59.279Z,40.55
2022-12-20T00:26:29.943Z,40.05
2022-12-20T00:28:58.518Z,40.13
2022-12-20T00:31:28.505Z,38.05
2022-12-20T00:33:57.778Z,41.17
2022-12-20T00:36:27.612Z,38.22
2022-12-20T00:38:56.838Z,39.30
2022-12-20T00:41:27.213Z,40.88
2022-12-20T00:43:54.827Z,39.92
2022-12-20T00:46:24.919Z,38.08
2022-12-20T00:48:54.504Z,39.08
2022-12-20T00:51:24.726Z,38.83
2022-12-20T00:53:52.944Z,38.30
2022-12-20T00:56:21.022Z,40.55
2022-12-20T00:58:49.878Z,38.13
2022-12-20T01:01:25.979Z,39.35
2022-12-20T01:03:54.662Z,38.67
2022-12-20T01:06:23.798Z,39.75
2022-12-20T01:08:52.336Z,38.83
2022-12-20T01:11:33.175Z,40.35
2022-12-20T01:14:07.046Z,38.03
2022-12-20T01:16:38.417Z,39.13
2022-12-20T01:19:07.361Z,40.65
2022-12-20T01:21:34.899Z,38.63
2022-12-20T01:24:02.487Z,41.00
2022-12-20T01:26:30.491Z,39.60
2022-12-20T01:29:00.284Z,38.38
2022-12-20T01:31:29.031Z,40.58
2022-12-20T01:33:57.349Z,38.33
2022-12-20T01:36:28.286Z,38.65
2022-12-20T01:39:02.226Z,39.27
2022-12-20T01:41:31.455Z,38.83
2022-12-20T01:44:26.328Z,38.40
2022-12-20T01:46:54.806Z,38.78
2022-12-20T01:49:27.498Z,38.03
2022-12-20T01:52:06.734Z,36.90
2022-12-20T01:54:37.550Z,37.03
2022-12-20T01:57:12.941Z,38.08
2022-12-20T01:59:43.337Z,39.00
2022-12-20T02:02:12.960Z,37.88
2022-12-20T02:04:40.672Z,37.17
2022-12-20T02:07:11.504Z,37.13
2022-12-20T02:09:39.706Z,36.90
2022-12-20T02:12:26.839Z,37.00
2022-12-20T02:15:14.269Z,35.65
2022-12-20T02:17:53.802Z,34.58
2022-12-20T02:20:27.181Z,36.55
2022-12-20T02:23:31.657Z,36.00
2022-12-20T02:26:23.601Z,36.00
2022-12-20T02:29:29.864Z,35.58
2022-12-20T02:32:19.616Z,36.22
2022-12-20T02:34:47.240Z,37.17
2022-12-20T02:37:14.716Z,35.50
2022-12-20T02:39:44.156Z,36.35
2022-12-20T02:42:14.171Z,35.88
2022-12-20T02:45:22.892Z,35.15
2022-12-20T02:48:00.721Z,34.78
2022-12-20T02:50:39.876Z,36.33
2022-12-20T02:53:08.358Z,35.47
2022-12-20T02:56:01.823Z,36.13
2022-12-20T02:58:36.310Z,36.40
2022-12-20T03:01:12.448Z,36.15
2022-12-20T03:03:40.745Z,36.80
2022-12-20T03:06:08.676Z,37.28
2022-12-20T03:08:36.662Z,38.53
2022-12-20T03:11:04.339Z,37.08
2022-12-20T03:13:33.052Z,37.03
2022-12-20T03:16:04.968Z,36.00
2022-12-20T03:18:32.720Z,35.42
2022-12-20T03:21:00.152Z,36.33
2022-12-20T03:23:27.681Z,35.90
2022-12-20T03:25:55.455Z,37.05
2022-12-20T03:28:32.377Z,36.83
2022-12-20T03:31:00.645Z,36.05
2022-12-20T03:33:28.290Z,36.28
2022-12-20T03:35:58.778Z,37.50
2022-12-20T03:38:26.270Z,37.38
2022-12-20T03:40:53.802Z,38.05
2022-12-20T03:43:22.964Z,37.10
2022-12-20T03:45:50.591Z,36.92
2022-12-20T03:48:18.766Z,38.63
2022-12-20T03:50:46.251Z,37.20
2022-12-20T03:53:13.787Z,38.67
2022-12-20T03:55:45.168Z,38.15
2022-12-20T03:58:13.875Z,36.08
2022-12-20T04:00:41.839Z,36.80
2022-12-20T04:03:29.613Z,36.42
2022-12-20T04:05:57.134Z,36.65
2022-12-20T04:08:24.847Z,35.95
2022-12-20T04:11:19.124Z,36.10
2022-12-20T04:13:55.202Z,35.80
2022-12-20T04:16:28.980Z,35.33
2022-12-20T04:18:57.296Z,35.25
2022-12-20T04:21:31.557Z,35.38
2022-12-20T04:24:01.966Z,37.45
2022-12-20T04:26:40.793Z,35.85
2022-12-20T04:29:09.089Z,34.67
2022-12-20T04:31:36.810Z,35.08
2022-12-20T04:34:04.756Z,36.33
2022-12-20T04:36:34.269Z,36.55
2022-12-20T04:39:05.431Z,35.73
2022-12-20T04:41:43.900Z,34.40
2022-12-20T04:44:13.893Z,35.45
2022-12-20T04:46:41.708Z,35.83
2022-12-20T04:49:13.139Z,35.65
2022-12-20T04:51:43.864Z,33.58
2022-12-20T04:54:12.929Z,36.30
2022-12-20T04:56:49.456Z,34.65
2022-12-20T04:59:21.038Z,33.28
2022-12-20T05:01:51.996Z,35.08
2022-12-20T05:04:42.473Z,33.53
2022-12-20T05:07:09.956Z,33.75
2022-12-20T05:09:39.301Z,33.88
2022-12-20T05:12:07.109Z,36.30
2022-12-20T05:14:34.834Z,35.35
2022-12-20T05:17:02.641Z,35.90
2022-12-20T05:19:30.344Z,36.80
2022-12-20T05:22:16.298Z,34.88
2022-12-20T05:25:14.758Z,34.40
2022-12-20T05:27:43.156Z,33.00
2022-12-20T05:30:11.253Z,36.08
2022-12-20T05:32:38.729Z,35.88
2022-12-20T05:35:06.430Z,35.63
2022-12-20T05:37:35.049Z,37.17
2022-12-20T05:40:11.939Z,37.60
2022-12-20T05:42:39.455Z,36.33
2022-12-20T05:45:07.554Z,36.58
2022-12-20T05:47:43.790Z,36.28
2022-12-20T05:50:18.485Z,38.70
2022-12-20T05:55:46.220Z,35.42
2022-12-20T05:58:14.617Z,36.63
2022-12-20T06:00:52.701Z,37.15
2022-12-20T06:03:21.119Z,39.03
2022-12-20T06:05:49.180Z,38.78
2022-12-20T06:08:23.801Z,39.08
2022-12-20T06:10:52.839Z,38.53
2022-12-20T06:13:21.378Z,42.83
2022-12-20T06:15:51.413Z,40.03
2022-12-20T06:18:20.151Z,41.50
2022-12-20T06:20:51.445Z,42.30
2022-12-20T06:25:58.645Z,39.25
2022-12-20T06:28:30.097Z,41.00
2022-12-20T06:30:58.725Z,39.80
2022-12-20T06:33:40.321Z,39.85
2022-12-20T06:36:08.130Z,42.58
2022-12-20T06:38:35.718Z,43.38
2022-12-20T06:41:03.612Z,42.58
2022-12-20T06:43:32.108Z,43.80
2022-12-20T06:45:59.613Z,46.28
2022-12-20T06:48:27.115Z,44.88
2022-12-20T06:50:56.301Z,44.63
2022-12-20T06:53:25.171Z,44.65
2022-12-20T06:55:52.766Z,47.28
2022-12-20T06:58:21.592Z,46.78
2022-12-20T07:00:49.711Z,46.60
2022-12-20T07:03:17.470Z,49.08
2022-12-20T07:05:45.048Z,44.95
2022-12-20T07:08:12.582Z,47.55
2022-12-20T07:10:39.962Z,48.47
2022-12-20T07:13:07.399Z,48.33
2022-12-20T07:15:35.205Z,46.33
2022-12-20T07:18:03.306Z,48.88
2022-12-20T07:20:31.430Z,49.28
2022-12-20T07:23:00.227Z,53.08
2022-12-20T07:25:28.134Z,50.35
2022-12-20T07:27:55.794Z,48.92
2022-12-20T07:30:23.549Z,50.63
2022-12-20T07:32:50.958Z,48.45
2022-12-20T07:35:18.503Z,49.92
2022-12-20T07:37:45.908Z,49.15
2022-12-20T07:40:14.943Z,47.83
2022-12-20T07:42:48.268Z,48.92
2022-12-20T07:45:16.382Z,46.85
2022-12-20T07:47:44.049Z,51.58
2022-12-20T07:50:11.972Z,50.60
2022-12-20T07:52:41.933Z,47.55
2022-12-20T07:55:10.372Z,45.53
2022-12-20T07:57:39.381Z,46.03
2022-12-20T08:00:07.459Z,43.03
2022-12-20T08:02:55.564Z,43.08
2022-12-20T08:05:24.424Z,43.67
2022-12-20T08:07:59.051Z,40.83
2022-12-20T08:10:28.675Z,40.97
2022-12-20T08:12:57.615Z,41.63
2022-12-20T08:15:25.677Z,38.33
2022-12-20T08:17:53.083Z,39.45
2022-12-20T08:20:20.946Z,41.25
2022-12-20T08:22:48.457Z,41.95
2022-12-20T08:25:15.910Z,40.20
2022-12-20T08:27:43.404Z,40.38
2022-12-20T08:30:11.693Z,47.03
2022-12-20T08:32:39.202Z,40.15
2022-12-20T08:35:07.626Z,42.67
2022-12-20T08:37:35.147Z,40.70
2022-12-20T08:40:02.570Z,41.60
2022-12-20T08:42:30.199Z,41.95
2022-12-20T08:44:57.656Z,43.22
2022-12-20T08:47:25.158Z,41.42
2022-12-20T08:49:52.558Z,42.60
2022-12-20T08:52:19.996Z,45.08
2022-12-20T08:54:47.577Z,43.33
2022-12-20T08:57:15.007Z,44.65
2022-12-20T08:59:42.461Z,44.58
2022-12-20T09:02:10.068Z,48.40
2022-12-20T09:04:37.588Z,43.05
2022-12-20T09:07:05.006Z,42.97
2022-12-20T09:09:32.472Z,42.72
2022-12-20T09:11:59.869Z,43.47
2022-12-20T09:14:27.305Z,43.90
2022-12-20T09:16:54.775Z,45.95
2022-12-20T09:19:22.220Z,46.80
2022-12-20T09:21:49.635Z,44.13
2022-12-20T09:24:17.405Z,45.28
2022-12-20T09:26:45.709Z,47.35
2022-12-20T09:29:22.966Z,46.40
2022-12-20T09:31:53.467Z,43.80
2022-12-20T09:34:20.918Z,46.65
2022-12-20T09:36:48.328Z,43.78
2022-12-20T09:39:15.732Z,44.67
2022-12-20T09:41:44.641Z,44.30
2022-12-20T09:44:15.635Z,46.63
2022-12-20T09:46:46.160Z,46.08
2022-12-20T09:49:19.633Z,44.55
2022-12-20T09:51:57.842Z,41.67
2022-12-20T09:54:49.924Z,45.55
2022-12-20T09:57:47.740Z,41.85
2022-12-20T10:00:17.447Z,41.30
2022-12-20T10:03:09.474Z,43.33
2022-12-20T10:05:46.676Z,42.55
2022-12-20T10:08:41.198Z,43.07
2022-12-20T10:11:26.666Z,41.30
2022-12-20T10:14:24.264Z,44.08
2022-12-20T10:16:56.995Z,42.75
2022-12-20T10:19:30.436Z,43.85
2022-12-20T10:22:17.525Z,42.60
2022-12-20T10:24:53.950Z,44.75
2022-12-20T10:27:22.101Z,43.05
2022-12-20T10:29:50.640Z,43.85
2022-12-20T10:32:22.236Z,42.95
2022-12-20T10:35:12.219Z,31.90
2022-12-20T10:38:06.990Z,43.03
2022-12-20T10:43:59.042Z,41.78
2022-12-20T10:46:48.872Z,43.42
2022-12-20T10:49:31.200Z,42.60
2022-12-20T10:52:00.603Z,43.28
2022-12-20T10:54:34.203Z,40.00
2022-12-20T10:57:15.027Z,42.63
2022-12-20T10:59:51.434Z,42.15
2022-12-20T11:02:36.988Z,42.20
2022-12-20T11:05:12.999Z,39.78
2022-12-20T11:10:46.335Z,43.38
2022-12-20T11:13:25.980Z,42.30
2022-12-20T11:16:01.600Z,42.80
2022-12-20T11:19:01.043Z,44.78
2022-12-20T11:21:44.765Z,42.67
2022-12-20T11:24:21.600Z,42.35
2022-12-20T11:26:49.003Z,42.75
2022-12-20T11:29:16.538Z,42.70
2022-12-20T11:32:05.122Z,43.42
2022-12-20T11:35:07.915Z,41.35
2022-12-20T11:40:36.332Z,44.40
2022-12-20T11:43:18.222Z,41.03
2022-12-20T11:45:45.577Z,43.35
2022-12-20T11:48:36.204Z,42.33
2022-12-20T11:51:06.161Z,41.78
2022-12-20T11:54:12.377Z,41.13
2022-12-20T11:56:45.535Z,34.95
2022-12-20T11:59:13.181Z,36.85
2022-12-20T12:02:19.273Z,35.70
2022-12-20T12:05:00.145Z,35.67
2022-12-20T12:07:32.252Z,32.85
2022-12-20T12:10:06.008Z,32.88
2022-12-20T12:12:40.553Z,36.15
2022-12-20T12:15:40.290Z,34.95
2022-12-20T12:18:20.413Z,36.97
2022-12-20T12:21:18.202Z,35.78
2022-12-20T12:24:08.332Z,38.47
2022-12-20T12:26:38.880Z,38.85
2022-12-20T12:29:09.290Z,41.50
2022-12-20T12:31:43.534Z,43.40
2022-12-20T12:34:21.863Z,47.53
2022-12-20T12:37:19.711Z,45.47
2022-12-20T12:39:55.792Z,45.72
2022-12-20T12:42:41.662Z,44.50
2022-12-20T12:45:23.260Z,46.97
2022-12-20T12:47:55.912Z,45.95
2022-12-20T12:50:31.920Z,42.60
2022-12-20T12:53:14.228Z,43.63
2022-12-20T12:55:44.404Z,43.03
2022-12-20T12:58:23.656Z,41.05
2022-12-20T13:01:00.984Z,41.58
2022-12-20T13:03:46.759Z,42.35
2022-12-20T13:06:27.042Z,41.75
2022-12-20T13:08:57.226Z,40.97
2022-12-20T13:11:47.149Z,42.45
2022-12-20T13:14:24.883Z,39.45
2022-12-20T13:17:17.183Z,41.95
2022-12-20T13:19:52.618Z,40.83
2022-12-20T13:22:27.154Z,41.13
2022-12-20T13:24:59.702Z,41.72
2022-12-20T13:27:31.411Z,43.67
2022-12-20T13:30:07.620Z,42.38
2022-12-20T13:32:46.941Z,43.05
2022-12-20T13:35:29.189Z,44.20
2022-12-20T13:38:11.724Z,44.72
2022-12-20T13:40:59.269Z,42.63
2022-12-20T13:43:36.068Z,44.15
2022-12-20T13:46:13.538Z,40.80
2022-12-20T13:48:57.037Z,41.33
2022-12-20T13:51:26.851Z,44.80
2022-12-20T13:53:55.991Z,43.90
2022-12-20T13:56:49.464Z,44.03
2022-12-20T13:59:26.968Z,44.50
2022-12-20T14:01:57.655Z,43.60
2022-12-20T14:04:40.690Z,44.00
2022-12-20T14:07:12.875Z,45.20
2022-12-20T14:09:44.156Z,42.80
2022-12-20T14:12:23.447Z,44.40
2022-12-20T14:14:54.456Z,44.35
2022-12-20T14:17:23.892Z,42.97
2022-12-20T14:20:03.398Z,43.72
2022-12-20T14:22:31.872Z,44.10
2022-12-20T14:24:59.651Z,45.42
2022-12-20T14:27:31.325Z,44.88
2022-12-20T14:29:58.858Z,46.67
2022-12-20T14:32:26.880Z,47.53
2022-12-20T14:34:54.600Z,47.13
2022-12-20T14:37:25.131Z,46.00
2022-12-20T14:40:19.332Z,46.60
2022-12-20T14:42:47.239Z,47.13
2022-12-20T14:45:14.647Z,48.47
2022-12-20T14:48:15.478Z,48.72
2022-12-20T14:50:52.959Z,48.22
2022-12-20T14:53:27.606Z,48.22
2022-12-20T14:55:55.464Z,49.20
2022-12-20T14:58:34.550Z,49.67
2022-12-20T15:01:17.013Z,50.80
2022-12-20T15:03:59.298Z,49.50
